createdAt,value
2023-04-14T00:00:10.303Z,100244.47
2023-04-14T00:02:41.054Z,100261.88
2023-04-14T00:05:09.281Z,100262.28
2023-04-14T00:07:36.984Z,100271.47
2023-04-14T00:10:04.790Z,100269.63
2023-04-14T00:12:32.453Z,100277.75
2023-04-14T00:15:01.397Z,100276.81
2023-04-14T00:17:29.086Z,100275.84
2023-04-14T00:19:56.663Z,100285.53
2023-04-14T00:22:24.359Z,100287.69
2023-04-14T00:24:52.032Z,100289.47
2023-04-14T00:27:19.612Z,100289.19
2023-04-14T00:29:50.365Z,100289.97
2023-04-14T00:32:19.604Z,100286.94
2023-04-14T00:34:47.237Z,100291.44
2023-04-14T00:37:14.984Z,100288.81
2023-04-14T00:39:42.549Z,100294.06
2023-04-14T00:42:10.143Z,100293.63
2023-04-14T00:44:37.776Z,100292.72
2023-04-14T00:47:05.550Z,100294.38
2023-04-14T00:49:34.923Z,100286.31
2023-04-14T00:52:02.718Z,100292.28
2023-04-14T00:54:31.302Z,100290.31
2023-04-14T00:56:58.901Z,100291.41
2023-04-14T00:59:28.698Z,100286.97
2023-04-14T01:01:56.553Z,100279.94
2023-04-14T01:04:25.899Z,100283.41
2023-04-14T01:06:58.175Z,100288.97
2023-04-14T01:09:25.799Z,100302.38
2023-04-14T01:11:56.053Z,100303.00
2023-04-14T01:14:31.474Z,100294.00
2023-04-14T01:17:01.453Z,100292.56
2023-04-14T01:19:35.237Z,100285.44
2023-04-14T01:22:04.860Z,100283.59
2023-04-14T01:24:38.721Z,100284.69
2023-04-14T01:27:09.305Z,100285.00
2023-04-14T01:29:56.070Z,100289.22
2023-04-14T01:32:25.546Z,100286.59
2023-04-14T01:34:54.334Z,100284.22
2023-04-14T01:37:22.871Z,100283.22
2023-04-14T01:39:51.306Z,100288.56
2023-04-14T01:42:20.626Z,100286.44
2023-04-14T01:44:48.220Z,100284.09
2023-04-14T01:47:16.526Z,100285.00
2023-04-14T01:49:45.578Z,100281.69
2023-04-14T01:52:13.709Z,100289.75
2023-04-14T01:54:41.709Z,100292.97
2023-04-14T01:57:10.470Z,100288.88
2023-04-14T01:59:38.264Z,100287.09
2023-04-14T02:02:07.089Z,100289.47
2023-04-14T02:04:34.791Z,100295.66
2023-04-14T02:07:03.959Z,100294.94
2023-04-14T02:09:31.712Z,100289.41
2023-04-14T02:11:59.348Z,100291.66
2023-04-14T02:14:26.958Z,100286.22
2023-04-14T02:16:57.237Z,100284.41
2023-04-14T02:19:24.912Z,100304.25
2023-04-14T02:21:52.578Z,100300.44
2023-04-14T02:24:22.921Z,100296.41
2023-04-14T02:26:53.742Z,100292.34
2023-04-14T02:29:23.234Z,100307.97
2023-04-14T02:31:51.466Z,100304.78
2023-04-14T02:34:20.178Z,100308.84
2023-04-14T02:36:49.281Z,100310.16
2023-04-14T02:39:18.787Z,100310.84
2023-04-14T02:41:47.990Z,100307.38
2023-04-14T02:44:17.445Z,100310.31
2023-04-14T02:46:47.307Z,100316.44
2023-04-14T02:49:15.068Z,100320.75
2023-04-14T02:51:43.188Z,100308.84
2023-04-14T02:54:11.915Z,100315.22
2023-04-14T02:56:43.289Z,100318.16
2023-04-14T02:59:12.382Z,100315.47
2023-04-14T03:01:50.764Z,100315.06
2023-04-14T03:04:18.617Z,100303.75
2023-04-14T03:06:46.426Z,100307.91
2023-04-14T03:09:14.262Z,100318.69
2023-04-14T03:11:42.491Z,100308.50
2023-04-14T03:14:10.313Z,100313.47
2023-04-14T03:16:40.799Z,100304.00
2023-04-14T03:19:10.337Z,100305.19
2023-04-14T03:21:42.339Z,100305.34
2023-04-14T03:24:10.275Z,100314.38
2023-04-14T03:26:38.018Z,100309.41
2023-04-14T03:29:05.906Z,100309.50
2023-04-14T03:31:34.730Z,100308.22
2023-04-14T03:34:04.315Z,100309.25
2023-04-14T03:36:36.661Z,100315.78
2023-04-14T03:39:06.076Z,100308.16
2023-04-14T03:41:38.811Z,100307.53
2023-04-14T03:44:07.313Z,100314.56
2023-04-14T03:46:35.530Z,100307.34
2023-04-14T03:49:07.447Z,100305.00
2023-04-14T03:51:36.182Z,100302.47
2023-04-14T03:54:04.154Z,100306.97
2023-04-14T03:56:31.964Z,100307.59
2023-04-14T03:58:59.890Z,100307.56
2023-04-14T04:01:27.894Z,100305.75
2023-04-14T04:03:55.782Z,100311.09
2023-04-14T04:06:26.344Z,100311.59
2023-04-14T04:08:55.519Z,100309.47
2023-04-14T04:11:23.201Z,100295.53
2023-04-14T04:13:52.506Z,100300.81
2023-04-14T04:16:20.420Z,100302.78
2023-04-14T04:18:48.371Z,100294.66
2023-04-14T04:21:19.385Z,100305.44
2023-04-14T04:23:48.962Z,100296.72
2023-04-14T04:26:16.935Z,100304.31
2023-04-14T04:28:47.014Z,100304.50
2023-04-14T04:31:14.697Z,100299.78
2023-04-14T04:33:42.395Z,100300.09
2023-04-14T04:36:10.055Z,100295.88
2023-04-14T04:38:42.835Z,100307.75
2023-04-14T04:41:22.819Z,100305.03
2023-04-14T04:43:51.638Z,100302.19
2023-04-14T04:46:22.994Z,100300.09
2023-04-14T04:48:50.831Z,100298.78
2023-04-14T04:51:21.970Z,100301.03
2023-04-14T04:53:51.109Z,100299.63
2023-04-14T04:56:18.971Z,100301.78
2023-04-14T04:58:49.207Z,100304.16
2023-04-14T05:01:18.931Z,100298.69
2023-04-14T05:03:46.821Z,100303.22
2023-04-14T05:06:14.463Z,100299.22
2023-04-14T05:08:42.101Z,100300.19
2023-04-14T05:11:09.990Z,100295.44
2023-04-14T05:13:37.587Z,100303.41
2023-04-14T05:16:07.485Z,100301.19
2023-04-14T05:18:35.583Z,100306.28
2023-04-14T05:21:03.889Z,100310.19
2023-04-14T05:23:31.517Z,100317.88
2023-04-14T05:26:07.430Z,100309.00
2023-04-14T05:28:46.829Z,100319.03
2023-04-14T05:31:16.157Z,100311.28
2023-04-14T05:33:43.823Z,100315.38
2023-04-14T05:36:11.657Z,100315.91
2023-04-14T05:38:40.859Z,100308.59
2023-04-14T05:41:08.575Z,100307.28
2023-04-14T05:43:36.881Z,100311.28
2023-04-14T05:46:04.794Z,100311.03
2023-04-14T05:48:35.202Z,100318.03
2023-04-14T05:51:03.680Z,100313.81
2023-04-14T05:53:31.387Z,100311.91
2023-04-14T05:55:59.028Z,100313.47
2023-04-14T05:58:27.331Z,100316.91
2023-04-14T06:00:54.917Z,100308.84
2023-04-14T06:03:22.714Z,100309.78
2023-04-14T06:05:53.074Z,100315.66
2023-04-14T06:08:21.191Z,100317.44
2023-04-14T06:10:48.800Z,100322.78
2023-04-14T06:13:16.888Z,100322.50
2023-04-14T06:15:44.542Z,100322.13
2023-04-14T06:18:12.163Z,100325.38
2023-04-14T06:20:40.015Z,100326.91
2023-04-14T06:23:09.028Z,100330.16
2023-04-14T06:25:36.702Z,100320.00
2023-04-14T06:28:04.498Z,100325.38
2023-04-14T06:30:33.057Z,100325.78
2023-04-14T06:33:04.129Z,100322.69
2023-04-14T06:35:33.954Z,100328.69
2023-04-14T06:38:02.056Z,100332.47
2023-04-14T06:40:31.351Z,100334.97
2023-04-14T06:42:58.962Z,100334.00
2023-04-14T06:45:27.119Z,100331.22
2023-04-14T06:47:54.843Z,100331.00
2023-04-14T06:50:22.565Z,100330.06
2023-04-14T06:52:50.177Z,100322.47
2023-04-14T06:55:17.824Z,100324.63
2023-04-14T06:57:46.870Z,100330.28
2023-04-14T07:00:14.797Z,100331.94
2023-04-14T07:02:42.582Z,100330.91
2023-04-14T07:05:10.464Z,100328.31
2023-04-14T07:07:43.412Z,100325.50
2023-04-14T07:10:12.615Z,100327.44
2023-04-14T07:12:40.974Z,100320.06
2023-04-14T07:15:16.436Z,100329.00
2023-04-14T07:17:46.584Z,100321.16
2023-04-14T07:20:15.039Z,100324.47
2023-04-14T07:22:46.975Z,100316.88
2023-04-14T07:25:14.923Z,100322.28
2023-04-14T07:27:52.738Z,100329.47
2023-04-14T07:30:29.519Z,100325.22
2023-04-14T07:32:57.609Z,100330.69
2023-04-14T07:35:25.520Z,100344.06
2023-04-14T07:37:53.775Z,100340.63
2023-04-14T07:40:21.442Z,100344.91
2023-04-14T07:42:49.076Z,100346.38
2023-04-14T07:45:16.856Z,100343.16
2023-04-14T07:47:46.476Z,100352.53
2023-04-14T07:50:16.261Z,100348.94
2023-04-14T07:52:48.774Z,100353.88
2023-04-14T07:55:16.434Z,100352.00
2023-04-14T07:57:47.306Z,100361.59
2023-04-14T08:00:15.684Z,100351.72
2023-04-14T08:02:43.740Z,100361.63
2023-04-14T08:05:12.999Z,100359.94
2023-04-14T08:07:40.865Z,100354.47
2023-04-14T08:10:08.823Z,100356.94
2023-04-14T08:12:36.618Z,100350.19
2023-04-14T08:15:04.384Z,100348.56
2023-04-14T08:17:32.246Z,100348.72
2023-04-14T08:19:59.906Z,100349.56
2023-04-14T08:22:28.888Z,100353.63
2023-04-14T08:24:56.548Z,100350.91
2023-04-14T08:27:24.199Z,100357.13
2023-04-14T08:29:51.950Z,100350.75
2023-04-14T08:32:19.593Z,100339.13
2023-04-14T08:35:37.566Z,100332.69
2023-04-14T08:37:37.165Z,100340.22
2023-04-14T08:40:05.270Z,100331.84
2023-04-14T08:42:32.845Z,100330.13
2023-04-14T08:45:00.482Z,100327.34
2023-04-14T08:47:28.082Z,100329.94
2023-04-14T08:49:57.639Z,100330.50
2023-04-14T08:52:25.473Z,100325.28
2023-04-14T08:54:54.618Z,100317.91
2023-04-14T08:57:22.317Z,100308.19
2023-04-14T08:59:50.158Z,100319.88
2023-04-14T09:02:17.833Z,100308.50
2023-04-14T09:04:45.719Z,100315.44
2023-04-14T09:07:13.422Z,100310.94
2023-04-14T09:09:41.055Z,100311.47
2023-04-14T09:12:10.251Z,100315.91
2023-04-14T09:14:37.920Z,100312.03
2023-04-14T09:17:06.315Z,100303.09
2023-04-14T09:19:34.132Z,100313.22
2023-04-14T09:22:01.765Z,100306.47
2023-04-14T09:24:32.451Z,100311.75
2023-04-14T09:27:01.667Z,100317.59
2023-04-14T09:29:30.686Z,100319.72
2023-04-14T09:31:58.328Z,100314.22
2023-04-14T09:34:26.095Z,100320.44
2023-04-14T09:37:00.569Z,100317.78
2023-04-14T09:39:28.257Z,100313.88
2023-04-14T09:41:55.835Z,100314.75
2023-04-14T09:44:23.899Z,100299.22
2023-04-14T09:46:59.853Z,100311.22
2023-04-14T09:49:27.770Z,100308.28
2023-04-14T09:51:56.492Z,100307.25
2023-04-14T09:54:25.094Z,100304.97
2023-04-14T09:56:52.775Z,100301.84
2023-04-14T09:59:30.646Z,100304.38
2023-04-14T10:02:00.776Z,100298.53
2023-04-14T10:04:28.521Z,100306.75
2023-04-14T10:06:57.320Z,100301.88
2023-04-14T10:09:27.043Z,100303.84
2023-04-14T10:12:09.527Z,100293.84
2023-04-14T10:14:37.803Z,100312.22
2023-04-14T10:17:07.089Z,100305.53
2023-04-14T10:19:35.548Z,100297.63
2023-04-14T10:22:06.217Z,100299.84
2023-04-14T10:24:33.999Z,100297.50
2023-04-14T10:27:03.430Z,100293.34
2023-04-14T10:29:31.096Z,100290.63
2023-04-14T10:32:00.614Z,100288.56
2023-04-14T10:34:29.714Z,100287.88
2023-04-14T10:36:57.329Z,100291.47
2023-04-14T10:39:25.367Z,100280.78
2023-04-14T10:41:53.499Z,100285.00
2023-04-14T10:44:24.940Z,100284.97
2023-04-14T10:46:54.146Z,100285.75
2023-04-14T10:49:23.833Z,100286.81
2023-04-14T10:52:26.734Z,100279.81
2023-04-14T10:54:55.222Z,100274.25
2023-04-14T10:57:38.719Z,100276.88
2023-04-14T11:00:35.997Z,100274.41
2023-04-14T11:03:14.958Z,100272.38
2023-04-14T11:05:54.038Z,100268.13
2023-04-14T11:08:27.676Z,100276.56
2023-04-14T11:11:01.905Z,100268.81
2023-04-14T11:13:29.854Z,100275.03
2023-04-14T11:15:58.128Z,100266.13
2023-04-14T11:18:33.080Z,100272.81
2023-04-14T11:21:04.702Z,100268.66
2023-04-14T11:23:34.069Z,100265.06
2023-04-14T11:26:01.932Z,100274.56
2023-04-14T11:28:30.179Z,100277.16
2023-04-14T11:30:58.313Z,100265.56
2023-04-14T11:33:28.084Z,100262.81
2023-04-14T11:35:55.936Z,100269.75
2023-04-14T11:38:24.278Z,100266.84
2023-04-14T11:40:53.389Z,100267.97
2023-04-14T11:43:22.867Z,100271.75
2023-04-14T11:45:50.849Z,100263.72
2023-04-14T11:48:19.325Z,100255.88
2023-04-14T11:50:47.020Z,100265.09
2023-04-14T11:53:15.053Z,100268.91
2023-04-14T11:55:43.252Z,100266.13
2023-04-14T11:58:12.342Z,100264.59
2023-04-14T12:00:40.033Z,100263.47
2023-04-14T12:03:07.996Z,100272.25
2023-04-14T12:05:36.044Z,100255.47
2023-04-14T12:08:08.707Z,100255.03
2023-04-14T12:10:39.861Z,100256.94
2023-04-14T12:13:08.157Z,100255.47
2023-04-14T12:15:37.702Z,100253.75
2023-04-14T12:18:06.799Z,100256.13
2023-04-14T12:20:42.815Z,100240.44
2023-04-14T12:23:10.448Z,100248.28
2023-04-14T12:25:38.089Z,100251.38
2023-04-14T12:28:07.063Z,100245.03
2023-04-14T12:30:34.752Z,100245.38
2023-04-14T12:33:09.517Z,100247.47
2023-04-14T12:35:37.284Z,100238.66
2023-04-14T12:38:09.523Z,100237.59
2023-04-14T12:40:40.735Z,100241.78
2023-04-14T12:43:11.429Z,100234.44
2023-04-14T12:45:42.254Z,100233.19
2023-04-14T12:48:11.301Z,100230.03
2023-04-14T12:50:39.155Z,100230.47
2023-04-14T12:53:21.598Z,100219.59
2023-04-14T12:55:49.381Z,100224.78
2023-04-14T12:58:16.968Z,100223.25
2023-04-14T13:00:45.007Z,100220.75
2023-04-14T13:03:14.153Z,100214.50
2023-04-14T13:05:41.917Z,100221.31
2023-04-14T13:08:09.512Z,100210.63
2023-04-14T13:10:37.114Z,100205.59
2023-04-14T13:13:04.732Z,100210.94
2023-04-14T13:16:14.945Z,100207.91
2023-04-14T13:18:21.612Z,100204.75
2023-04-14T13:20:53.291Z,100209.50
2023-04-14T13:23:20.845Z,100199.06
2023-04-14T13:25:48.472Z,100199.72
2023-04-14T13:28:16.350Z,100192.53
2023-04-14T13:30:44.431Z,100184.94
2023-04-14T13:33:12.022Z,100197.44
2023-04-14T13:35:41.223Z,100186.22
2023-04-14T13:38:08.794Z,100186.84
2023-04-14T13:40:36.398Z,100183.31
2023-04-14T13:43:04.026Z,100180.31
2023-04-14T13:45:32.236Z,100183.25
2023-04-14T13:48:01.081Z,100179.13
2023-04-14T13:50:28.979Z,100179.44
2023-04-14T13:52:58.716Z,100179.00
2023-04-14T13:55:26.353Z,100174.63
2023-04-14T13:57:55.192Z,100179.69
2023-04-14T14:00:23.059Z,100180.94
2023-04-14T14:02:51.825Z,100172.81
2023-04-14T14:05:19.571Z,100174.84
2023-04-14T14:07:47.223Z,100169.78
2023-04-14T14:10:16.230Z,100175.63
2023-04-14T14:12:43.861Z,100173.03
2023-04-14T14:15:12.374Z,100162.16
2023-04-14T14:17:40.697Z,100163.66
2023-04-14T14:20:09.500Z,100170.69
2023-04-14T14:22:37.193Z,100164.97
2023-04-14T14:25:18.535Z,100167.53
2023-04-14T14:27:50.128Z,100163.75
2023-04-14T14:30:17.758Z,100166.88
2023-04-14T14:32:45.458Z,100168.56
2023-04-14T14:35:13.230Z,100164.72
2023-04-14T14:37:43.251Z,100157.22
2023-04-14T14:40:11.321Z,100152.41
2023-04-14T14:42:39.005Z,100148.31
2023-04-14T14:45:09.170Z,100142.75
2023-04-14T14:47:37.125Z,100148.91
2023-04-14T14:50:07.677Z,100152.16
2023-04-14T14:52:36.371Z,100142.72
2023-04-14T14:55:04.340Z,100152.13
2023-04-14T14:57:32.010Z,100145.00
2023-04-14T14:59:59.638Z,100146.78
2023-04-14T15:02:28.763Z,100144.19
2023-04-14T15:04:56.668Z,100146.09
2023-04-14T15:07:24.298Z,100142.63
2023-04-14T15:09:51.914Z,100147.41
2023-04-14T15:12:19.621Z,100159.53
2023-04-14T15:14:47.236Z,100144.06
2023-04-14T15:17:14.856Z,100152.59
2023-04-14T15:19:44.755Z,100146.72
2023-04-14T15:22:12.423Z,100152.69
2023-04-14T15:24:40.117Z,100155.59
2023-04-14T15:27:07.739Z,100156.44
2023-04-14T15:29:35.364Z,100155.31
2023-04-14T15:32:03.072Z,100165.56
2023-04-14T15:34:30.723Z,100161.13
2023-04-14T15:37:00.379Z,100157.97
2023-04-14T15:39:28.751Z,100164.38
2023-04-14T15:41:56.984Z,100160.19
2023-04-14T15:44:26.054Z,100154.69
2023-04-14T15:46:54.060Z,100151.31
2023-04-14T15:49:24.629Z,100151.53
2023-04-14T15:51:53.620Z,100154.94
2023-04-14T15:54:23.609Z,100163.72
2023-04-14T15:56:52.376Z,100152.84
2023-04-14T15:59:22.366Z,100166.53
2023-04-14T16:01:50.011Z,100161.66
2023-04-14T16:04:17.947Z,100163.16
2023-04-14T16:06:46.762Z,100174.78
2023-04-14T16:09:15.431Z,100176.25
2023-04-14T16:11:44.547Z,100163.97
2023-04-14T16:14:12.477Z,100160.59
2023-04-14T16:16:40.166Z,100173.03
2023-04-14T16:19:07.771Z,100170.69
2023-04-14T16:21:35.558Z,100174.03
2023-04-14T16:24:03.489Z,100166.75
2023-04-14T16:26:31.423Z,100156.81
2023-04-14T16:29:00.504Z,100150.41
2023-04-14T16:31:28.260Z,100165.69
2023-04-14T16:33:56.172Z,100158.13
2023-04-14T16:36:25.326Z,100160.09
2023-04-14T16:38:52.930Z,100161.81
2023-04-14T16:41:20.578Z,100164.47
2023-04-14T16:43:48.244Z,100160.25
2023-04-14T16:46:17.521Z,100163.25
2023-04-14T16:48:45.324Z,100160.28
2023-04-14T16:51:12.891Z,100165.81
2023-04-14T16:53:40.741Z,100165.47
2023-04-14T16:56:08.858Z,100164.59
2023-04-14T16:58:36.924Z,100167.84
2023-04-14T17:01:04.999Z,100165.50
2023-04-14T17:03:34.178Z,100164.50
2023-04-14T17:06:02.037Z,100165.56
2023-04-14T17:08:29.641Z,100169.63
2023-04-14T17:10:57.866Z,100162.81
2023-04-14T17:13:25.503Z,100176.72
2023-04-14T17:16:02.349Z,100178.88
2023-04-14T17:18:37.366Z,100173.13
2023-04-14T17:21:05.544Z,100169.50
2023-04-14T17:23:35.315Z,100167.38
2023-04-14T17:26:03.168Z,100171.22
2023-04-14T17:28:30.811Z,100177.13
2023-04-14T17:30:58.902Z,100170.28
2023-04-14T17:33:27.288Z,100157.59
2023-04-14T17:35:56.499Z,100162.31
2023-04-14T17:38:24.240Z,100165.53
2023-04-14T17:40:53.313Z,100170.00
2023-04-14T17:43:21.117Z,100166.47
2023-04-14T17:45:50.446Z,100159.38
2023-04-14T17:48:19.399Z,100156.56
2023-04-14T17:50:47.244Z,100158.63
2023-04-14T17:53:16.919Z,100158.75
2023-04-14T17:55:44.818Z,100161.03
2023-04-14T17:58:12.495Z,100171.50
2023-04-14T18:00:40.224Z,100160.81
2023-04-14T18:03:07.971Z,100161.44
2023-04-14T18:05:35.602Z,100153.59
2023-04-14T18:08:03.245Z,100164.50
2023-04-14T18:10:32.207Z,100175.38
2023-04-14T18:13:00.908Z,100177.09
2023-04-14T18:15:28.574Z,100169.53
2023-04-14T18:17:56.747Z,100160.38
2023-04-14T18:20:26.410Z,100157.81
2023-04-14T18:22:54.652Z,100160.94
2023-04-14T18:25:22.288Z,100155.47
2023-04-14T18:30:22.653Z,100176.66
2023-04-14T18:32:50.391Z,100172.88
2023-04-14T18:35:17.956Z,100172.88
2023-04-14T18:37:46.343Z,100164.59
2023-04-14T18:40:13.953Z,100176.25
2023-04-14T18:42:41.580Z,100179.44
2023-04-14T18:45:11.012Z,100178.47
2023-04-14T18:47:43.112Z,100173.78
2023-04-14T18:50:11.873Z,100169.69
2023-04-14T18:52:39.572Z,100170.28
2023-04-14T18:55:07.646Z,100161.66
2023-04-14T18:57:35.229Z,100174.09
2023-04-14T19:00:04.188Z,100155.25
2023-04-14T19:02:34.523Z,100158.25
2023-04-14T19:05:02.493Z,100143.56
2023-04-14T19:07:30.218Z,100149.19
2023-04-14T19:09:57.939Z,100146.50
2023-04-14T19:12:28.379Z,100152.81
2023-04-14T19:14:56.462Z,100143.94
2023-04-14T19:17:24.186Z,100141.25
2023-04-14T19:19:53.184Z,100141.31
2023-04-14T19:22:20.868Z,100133.09
2023-04-14T19:24:48.547Z,100125.88
2023-04-14T19:27:16.192Z,100129.63
2023-04-14T19:29:43.792Z,100121.06
2023-04-14T19:32:11.449Z,100122.38
2023-04-14T19:34:39.053Z,100122.41
2023-04-14T19:37:08.067Z,100133.97
2023-04-14T19:39:35.624Z,100145.81
2023-04-14T19:42:03.632Z,100144.63
2023-04-14T19:44:32.174Z,100146.78
2023-04-14T19:47:00.174Z,100145.94
2023-04-14T19:49:27.939Z,100150.56
2023-04-14T19:51:55.571Z,100140.75
2023-04-14T19:54:24.521Z,100139.97
2023-04-14T19:56:52.265Z,100139.22
2023-04-14T19:59:20.733Z,100122.06
2023-04-14T20:01:48.582Z,100119.78
2023-04-14T20:04:16.292Z,100131.75
2023-04-14T20:06:44.161Z,100145.97
2023-04-14T20:09:11.981Z,100128.13
2023-04-14T20:11:40.932Z,100114.63
2023-04-14T20:14:08.543Z,100131.09
2023-04-14T20:16:36.166Z,100114.22
2023-04-14T20:19:04.016Z,100121.91
2023-04-14T20:21:31.749Z,100113.00
2023-04-14T20:24:06.083Z,100104.91
2023-04-14T20:26:35.244Z,100098.59
2023-04-14T20:29:05.278Z,100095.06
2023-04-14T20:31:32.997Z,100087.81
2023-04-14T20:34:00.884Z,100088.84
2023-04-14T20:36:31.304Z,100090.75
2023-04-14T20:38:59.394Z,100080.28
2023-04-14T20:41:27.191Z,100076.47
2023-04-14T20:43:54.829Z,100088.09
2023-04-14T20:46:23.910Z,100081.81
2023-04-14T20:48:51.620Z,100076.94
2023-04-14T20:51:19.519Z,100082.06
2023-04-14T20:53:47.122Z,100089.75
2023-04-14T20:56:14.771Z,100105.00
2023-04-14T20:58:42.464Z,100096.06
2023-04-14T21:01:10.434Z,100092.72
2023-04-14T21:03:39.753Z,100088.06
2023-04-14T21:06:07.553Z,100081.00
2023-04-14T21:08:35.467Z,100077.72
2023-04-14T21:11:16.930Z,100071.47
2023-04-14T21:15:31.116Z,100071.56
2023-04-14T21:16:34.277Z,100062.25
2023-04-14T21:19:03.645Z,100060.03
2023-04-14T21:21:32.948Z,100062.75
2023-04-14T21:24:00.614Z,100056.41
2023-04-14T21:26:28.423Z,100054.63
2023-04-14T21:28:56.013Z,100052.06
2023-04-14T21:31:23.740Z,100057.78
2023-04-14T21:33:51.683Z,100054.19
2023-04-14T21:36:20.662Z,100055.53
2023-04-14T21:38:48.271Z,100054.16
2023-04-14T21:41:16.005Z,100052.91
2023-04-14T21:43:43.628Z,100051.63
2023-04-14T21:46:11.295Z,100042.13
2023-04-14T21:48:38.949Z,100038.41
2023-04-14T21:51:06.652Z,100040.13
2023-04-14T21:53:36.141Z,100047.63
2023-04-14T21:56:04.478Z,100036.19
2023-04-14T21:58:38.179Z,100035.72
2023-04-14T22:01:06.970Z,100026.00
2023-04-14T22:03:37.356Z,100016.97
2023-04-14T22:06:05.541Z,100025.41
2023-04-14T22:08:33.157Z,100028.44
2023-04-14T22:11:02.096Z,100025.78
2023-04-14T22:13:29.794Z,100024.28
2023-04-14T22:15:58.133Z,100019.22
2023-04-14T22:18:25.774Z,100019.38
2023-04-14T22:20:53.411Z,100027.47
2023-04-14T22:23:21.004Z,100024.06
2023-04-14T22:25:48.649Z,100019.94
2023-04-14T22:28:17.589Z,100009.91
2023-04-14T22:30:45.258Z,100007.69
2023-04-14T22:33:13.001Z,100013.19
2023-04-14T22:35:40.676Z,100005.94
2023-04-14T22:38:08.346Z,100012.88
2023-04-14T22:40:35.908Z,100009.56
2023-04-14T22:43:08.551Z,100017.19
2023-04-14T22:45:38.098Z,100015.59
2023-04-14T22:48:06.284Z,100014.81
2023-04-14T22:50:34.046Z,100006.59
2023-04-14T22:53:01.957Z,100009.88
2023-04-14T22:55:29.654Z,100010.63
2023-04-14T22:57:57.300Z,100012.13
2023-04-14T23:00:25.181Z,100020.84
2023-04-14T23:02:55.577Z,100009.88
2023-04-14T23:05:23.571Z,100016.31
2023-04-14T23:07:51.217Z,100003.34
2023-04-14T23:10:18.971Z,100017.75
2023-04-14T23:12:46.789Z,100012.88
2023-04-14T23:15:14.389Z,100015.72
2023-04-14T23:17:42.085Z,100001.78
2023-04-14T23:20:11.649Z,99995.41
2023-04-14T23:22:39.574Z,100017.81
2023-04-14T23:25:08.838Z,100009.47
2023-04-14T23:27:36.436Z,100004.72
2023-04-14T23:30:05.345Z,100011.81
2023-04-14T23:32:33.527Z,100011.22
2023-04-14T23:35:01.154Z,100003.69
2023-04-14T23:37:30.152Z,100006.75
2023-04-14T23:39:58.065Z,100002.53
2023-04-14T23:42:25.714Z,100007.50
2023-04-14T23:44:53.332Z,100009.16
2023-04-14T23:47:20.930Z,100003.63
2023-04-14T23:49:48.600Z,100001.47
2023-04-14T23:52:16.361Z,99992.41
2023-04-14T23:54:45.303Z,99991.13
2023-04-14T23:57:13.274Z,99991.72
2023-04-14T23:59:41.213Z,99991.75
